Time;durP1;ratioP1;P1;durP2;ratioP2;P2;SDS_P1;SDS_P2;PMS_P1;PMS_P2;Temp;Humidity;BMP_temperature;BMP_pressure;BME280_temperature;BME280_humidity;BME280_pressure;Samples;Min_cycle;Max_cycle;Signal;HPM_P1;HPM_P2
2022/02/02 00:00:28;;;;;;;53.10;25.85;;;;;;;-0.19;100.00;97286.03;5051415;28;20037;-75
2022/02/02 00:02:58;;;;;;;46.58;25.08;;;;;;;-0.18;100.00;97288.44;5051226;28;20071;-75
2022/02/02 00:07:59;;;;;;;46.58;25.02;;;;;;;-0.10;100.00;97281.88;5052596;28;20428;-76
2022/02/02 00:12:59;;;;;;;51.35;25.88;;;;;;;-0.06;100.00;97291.88;5060181;28;20128;-75
2022/02/02 00:20:49;;;;;;;48.08;26.17;;;;;;;-0.25;100.00;97290.47;5052533;28;20059;-75
2022/02/02 00:23:18;;;;;;;47.40;26.10;;;;;;;-0.33;100.00;97280.13;5051238;28;20029;-75
2022/02/02 00:25:51;;;;;;;43.58;24.00;;;;;;;-0.39;100.00;97265.00;5052290;28;20083;-77
2022/02/02 00:28:20;;;;;;;52.63;26.30;;;;;;;-0.20;100.00;97261.03;5052608;28;20037;-76
2022/02/02 00:30:46;;;;;;;58.17;30.13;;;;;;;-0.15;100.00;97258.41;5052329;28;20028;-76
2022/02/02 00:35:42;;;;;;;52.42;28.50;;;;;;;-0.19;100.00;97246.50;5037824;28;20449;-76
2022/02/02 00:38:07;;;;;;;57.10;29.45;;;;;;;-0.16;100.00;97245.22;5031820;28;20034;-76
2022/02/02 00:40:33;;;;;;;57.72;31.65;;;;;;;-0.13;100.00;97253.63;5029907;28;20026;-75
2022/02/02 00:42:58;;;;;;;51.65;28.60;;;;;;;-0.14;100.00;97268.09;5034108;28;20036;-76
2022/02/02 00:45:30;;;;;;;57.75;30.23;;;;;;;-0.25;100.00;97250.19;5079267;28;20057;-75
2022/02/02 00:47:56;;;;;;;61.00;32.03;;;;;;;-0.22;100.00;97238.16;5065511;28;20034;-75
2022/02/02 00:50:23;;;;;;;57.97;31.70;;;;;;;-0.26;100.00;97237.00;5038525;28;20135;-75
2022/02/02 00:52:51;;;;;;;61.33;32.00;;;;;;;-0.39;100.00;97242.69;5051044;28;20072;-74
2022/02/02 00:55:18;;;;;;;51.53;29.67;;;;;;;-0.35;100.00;97243.84;5051146;28;20021;-74
2022/02/02 00:57:44;;;;;;;60.88;30.83;;;;;;;-0.49;100.00;97262.13;5051066;28;20096;-75
2022/02/02 01:00:10;;;;;;;61.08;30.38;;;;;;;-0.56;100.00;97267.66;5051180;28;20083;-77
2022/02/02 01:02:35;;;;;;;53.42;27.65;;;;;;;-0.56;100.00;97264.16;5051116;28;20035;-76
2022/02/02 01:05:01;;;;;;;56.88;30.45;;;;;;;-0.75;100.00;97258.16;5050743;28;20060;-76
2022/02/02 01:08:18;;;;;;;61.13;30.70;;;;;;;-0.87;100.00;97259.28;5050857;28;20069;-75
2022/02/02 01:10:28;;;;;;;55.47;29.95;;;;;;;-0.92;100.00;97253.81;5050728;28;20101;-75
2022/02/02 01:18:11;;;;;;;61.20;29.87;;;;;;;-1.02;100.00;97253.63;5051022;28;20409;-77
2022/02/02 01:20:37;;;;;;;63.95;33.33;;;;;;;-1.08;100.00;97250.84;5050791;28;20047;-75
2022/02/02 01:28:41;;;;;;;60.58;31.55;;;;;;;-1.01;100.00;97266.00;5036381;28;20036;-75
2022/02/02 01:31:11;;;;;;;63.58;32.13;;;;;;;-0.99;100.00;97239.72;5047243;28;20504;-77
2022/02/02 01:33:36;;;;;;;62.20;31.83;;;;;;;-1.14;100.00;97234.91;5052092;28;20400;-75
2022/02/02 01:36:02;;;;;;;65.15;30.88;;;;;;;-1.24;100.00;97218.59;5049792;28;20128;-75
2022/02/02 01:38:32;;;;;;;64.75;32.60;;;;;;;-1.27;100.00;97208.34;5050525;28;20033;-76
2022/02/02 01:41:05;;;;;;;64.53;33.47;;;;;;;-1.38;100.00;97215.38;5049030;28;20076;-76
2022/02/02 01:43:35;;;;;;;55.85;31.38;;;;;;;-1.42;100.00;97216.91;5051626;28;20497;-75
2022/02/02 01:46:09;;;;;;;60.70;31.67;;;;;;;-1.25;100.00;97220.47;5050575;28;20028;-75
2022/02/02 01:48:47;;;;;;;62.00;31.55;;;;;;;-1.23;100.00;97221.06;5051693;28;20047;-77
2022/02/02 01:54:13;;;;;;;61.13;31.23;;;;;;;-1.09;100.00;97213.53;5049048;28;20036;-75
2022/02/02 01:56:38;;;;;;;53.67;30.55;;;;;;;-1.06;100.00;97188.91;5049169;28;20521;-75
2022/02/02 01:59:17;;;;;;;55.75;29.25;;;;;;;-1.03;100.00;97182.25;5048903;28;20029;-75
2022/02/02 02:01:43;;;;;;;59.30;31.55;;;;;;;-1.20;100.00;97176.84;5050227;28;20033;-74
2022/02/02 02:04:08;;;;;;;60.20;32.00;;;;;;;-1.20;100.00;97187.56;5049072;28;20017;-75
2022/02/02 02:06:33;;;;;;;51.45;28.70;;;;;;;-1.21;100.00;97181.38;5049109;28;20033;-75
2022/02/02 02:08:59;;;;;;;59.10;29.83;;;;;;;-1.09;100.00;97203.59;5050052;28;20024;-75
2022/02/02 02:11:24;;;;;;;54.17;29.27;;;;;;;-0.98;100.00;97201.13;5049850;28;20021;-75
2022/02/02 02:14:37;;;;;;;57.88;28.67;;;;;;;-0.88;100.00;97199.44;5050163;28;20075;-75
2022/02/02 02:16:51;;;;;;;53.88;29.02;;;;;;;-0.96;100.00;97172.16;5050006;28;20037;-76
2022/02/02 02:19:20;;;;;;;49.90;27.42;;;;;;;-0.85;100.00;97169.44;5050199;28;20091;-75
2022/02/02 02:21:48;;;;;;;56.20;29.73;;;;;;;-0.89;100.00;97186.25;5050019;28;20090;-75
2022/02/02 02:24:14;;;;;;;60.58;29.90;;;;;;;-0.86;100.00;97166.97;5049755;28;20025;-76
2022/02/02 02:26:41;;;;;;;58.58;30.23;;;;;;;-1.04;100.00;97146.56;5049923;28;20131;-75
2022/02/02 02:32:09;;;;;;;58.50;30.25;;;;;;;-1.09;100.00;97152.63;5050108;28;20436;-75
2022/02/02 03:30:33;;;;;;;59.00;29.35;;;;;;;-1.54;100.00;97175.94;5053539;28;20051;-75
2022/02/02 03:55:22;;;;;;;49.83;24.85;;;;;;;-1.13;100.00;97189.03;5052724;28;20033;-75
2022/02/02 04:00:42;;;;;;;49.78;24.65;;;;;;;-1.05;100.00;97185.16;5055742;28;20108;-75
2022/02/02 04:06:07;;;;;;;50.40;25.45;;;;;;;-1.09;100.00;97168.72;5051771;28;20517;-75
2022/02/02 04:08:37;;;;;;;47.92;25.45;;;;;;;-1.22;100.00;97179.75;5052158;28;20029;-75
2022/02/02 04:11:11;;;;;;;47.05;24.92;;;;;;;-1.14;100.00;97184.75;5052652;28;20025;-75
2022/02/02 05:05:01;;;;;;;46.67;24.25;;;;;;;-1.09;100.00;97155.31;5051768;28;20052;-75
2022/02/02 05:07:34;;;;;;;43.45;24.48;;;;;;;-1.10;100.00;97155.56;5051588;28;20021;-75
2022/02/02 05:53:20;;;;;;;42.33;24.17;;;;;;;-1.14;100.00;97171.34;5030408;28;20116;-75
2022/02/02 05:55:45;;;;;;;46.50;25.90;;;;;;;-1.23;100.00;97167.41;5030585;28;20029;-75
2022/02/02 05:58:11;;;;;;;46.42;26.17;;;;;;;-1.19;100.00;97167.75;5030539;28;20044;-74
2022/02/02 06:00:38;;;;;;;43.22;24.85;;;;;;;-1.08;100.00;97175.75;5030208;28;20040;-75
2022/02/02 06:03:13;;;;;;;44.45;24.15;;;;;;;-1.07;100.00;97193.44;5042149;28;20474;-74
2022/02/02 06:05:40;;;;;;;41.80;22.85;;;;;;;-1.21;100.00;97202.84;5049013;28;20436;-73
2022/02/02 06:08:24;;;;;;;44.65;24.55;;;;;;;-1.23;100.00;97196.09;5050292;28;20798;-75
2022/02/02 06:10:50;;;;;;;58.83;25.92;;;;;;;-1.21;100.00;97191.31;5052443;28;20028;-75
2022/02/02 06:13:16;;;;;;;43.65;22.38;;;;;;;-1.16;100.00;97170.75;5051762;28;20021;-75
2022/02/02 06:15:42;;;;;;;45.83;25.00;;;;;;;-1.17;100.00;97152.22;5050267;28;20214;-74
2022/02/02 06:18:08;;;;;;;40.08;23.05;;;;;;;-1.17;100.00;97145.00;5050441;28;20557;-77
2022/02/02 06:20:34;;;;;;;47.05;23.75;;;;;;;-1.12;100.00;97163.03;5051958;28;20027;-73
2022/02/02 06:23:22;;;;;;;50.22;26.92;;;;;;;-1.09;100.00;97200.09;5052255;28;20025;-75
2022/02/02 06:25:51;;;;;;;57.10;27.92;;;;;;;-0.93;100.00;97203.88;5052524;28;20401;-75
2022/02/02 06:28:23;;;;;;;45.20;26.25;;;;;;;-1.05;100.00;97184.34;5054419;28;20514;-75
2022/02/02 06:30:59;;;;;;;43.45;24.23;;;;;;;-0.95;100.00;97195.28;5056725;28;20040;-75
2022/02/02 06:33:34;;;;;;;44.28;24.77;;;;;;;-0.93;100.00;97198.53;5049325;28;20025;-76
2022/02/02 06:36:00;;;;;;;45.67;26.20;;;;;;;-1.07;100.00;97173.88;5034062;28;20056;-75
2022/02/02 06:38:27;;;;;;;48.45;27.08;;;;;;;-1.11;100.00;97170.84;5036021;28;20274;-75
2022/02/02 06:40:53;;;;;;;46.83;25.77;;;;;;;-1.03;100.00;97169.63;5053778;28;20021;-75
2022/02/02 06:43:19;;;;;;;50.13;26.27;;;;;;;-1.00;100.00;97176.41;5054051;28;20363;-73
2022/02/02 06:45:45;;;;;;;53.08;27.98;;;;;;;-0.95;100.00;97192.59;5053628;28;20037;-73
2022/02/02 06:48:10;;;;;;;170.85;78.40;;;;;;;-0.74;100.00;97199.94;5055327;28;20029;-72
2022/02/02 06:50:40;;;;;;;50.33;27.95;;;;;;;-0.81;100.00;97167.88;5054610;28;20446;-73
2022/02/02 06:53:24;;;;;;;53.60;29.40;;;;;;;-0.93;100.00;97204.69;5053366;28;20115;-72
2022/02/02 06:56:05;;;;;;;46.80;27.88;;;;;;;-0.83;100.00;97230.91;5053409;28;20021;-74
2022/02/02 06:59:32;;;;;;;47.75;26.23;;;;;;;-0.93;100.00;97215.44;5053823;28;20473;-73
2022/02/02 07:04:53;;;;;;;48.47;28.45;;;;;;;-0.93;100.00;97225.34;5053857;28;20379;-76
2022/02/02 07:24:05;;;;;;;44.08;24.42;;;;;;;-0.31;100.00;97294.13;5052365;28;20059;-75
2022/02/02 07:29:07;;;;;;;38.70;21.60;;;;;;;-0.38;100.00;97252.38;5053035;28;20371;-75
2022/02/02 07:32:07;;;;;;;48.67;23.65;;;;;;;-0.28;100.00;97258.72;5051525;28;20028;-75
2022/02/02 07:34:50;;;;;;;49.42;23.65;;;;;;;-0.27;100.00;97273.78;5051935;28;20567;-75
2022/02/02 07:37:29;;;;;;;45.08;23.50;;;;;;;-0.08;100.00;97272.50;5051645;28;20029;-74
2022/02/02 07:40:03;;;;;;;45.65;23.73;;;;;;;-0.08;100.00;97279.75;5052761;28;20029;-75
2022/02/02 07:42:33;;;;;;;50.33;26.73;;;;;;;-0.05;100.00;97284.63;5052987;28;20033;-75
2022/02/02 07:45:21;;;;;;;46.50;24.27;;;;;;;0.15;100.00;97292.22;5052529;28;20025;-74
2022/02/02 07:48:01;;;;;;;43.53;23.73;;;;;;;0.09;100.00;97298.56;5052961;28;20405;-75
2022/02/02 07:50:32;;;;;;;47.60;24.60;;;;;;;0.15;100.00;97292.22;5051242;28;20552;-75
2022/02/02 07:53:04;;;;;;;45.17;23.00;;;;;;;0.21;100.00;97299.28;5052408;28;20394;-75
2022/02/02 07:55:30;;;;;;;42.00;23.70;;;;;;;0.34;100.00;97309.72;5051106;28;20036;-75
2022/02/02 07:57:58;;;;;;;44.45;24.63;;;;;;;0.37;100.00;97318.09;5052547;28;20152;-74
2022/02/02 08:00:24;;;;;;;40.08;23.70;;;;;;;0.52;100.00;97314.81;5051661;28;20071;-76
2022/02/02 08:03:05;;;;;;;43.97;23.67;;;;;;;0.56;100.00;97282.84;5052363;28;20427;-75
2022/02/02 08:05:33;;;;;;;40.50;24.42;;;;;;;0.75;100.00;97313.78;5052414;28;20028;-75
2022/02/02 08:10:25;;;;;;;41.25;22.90;;;;;;;0.88;100.00;97327.69;5054293;28;20076;-74
2022/02/02 08:12:56;;;;;;;42.80;25.42;;;;;;;1.00;100.00;97328.38;5050716;28;20123;-75
2022/02/02 08:15:25;;;;;;;45.22;24.58;;;;;;;1.06;100.00;97332.78;5052310;28;20112;-75
2022/02/02 08:17:52;;;;;;;48.47;26.60;;;;;;;1.02;100.00;97331.66;5052424;28;20118;-75
2022/02/02 08:20:18;;;;;;;53.25;28.25;;;;;;;0.83;100.00;97342.97;5051556;28;20097;-76
2022/02/02 08:22:44;;;;;;;49.42;26.80;;;;;;;0.89;100.00;97323.94;5054731;28;20536;-76
2022/02/02 08:25:25;;;;;;;48.33;27.33;;;;;;;1.33;100.00;97332.00;5053357;28;20037;-75
2022/02/02 08:27:53;;;;;;;49.88;26.58;;;;;;;1.63;100.00;97322.38;5052316;28;20025;-75
2022/02/02 08:30:21;;;;;;;49.90;27.88;;;;;;;1.45;100.00;97311.13;5053399;28;20032;-74
2022/02/02 08:32:51;;;;;;;42.33;24.80;;;;;;;1.56;100.00;97331.75;5051814;28;20120;-76
2022/02/02 08:35:21;;;;;;;49.50;26.65;;;;;;;1.80;100.00;97338.47;5052744;28;20040;-76
2022/02/02 08:37:51;;;;;;;46.17;25.95;;;;;;;2.19;100.00;97327.50;5053715;28;20394;-76
2022/02/02 08:42:44;;;;;;;44.50;24.50;;;;;;;2.57;100.00;97330.72;5052265;28;20136;-75
2022/02/02 08:45:24;;;;;;;47.63;24.30;;;;;;;3.01;100.00;97333.97;5052189;28;20151;-75
2022/02/02 08:48:03;;;;;;;40.78;22.65;;;;;;;3.48;100.00;97328.50;5051887;28;20029;-75
2022/02/02 08:50:42;;;;;;;40.15;22.67;;;;;;;4.22;99.22;97341.63;5049467;28;20024;-76
2022/02/02 08:53:17;;;;;;;41.22;23.63;;;;;;;4.71;94.97;97333.75;5049013;28;20078;-76
2022/02/02 09:00:51;;;;;;;34.20;19.35;;;;;;;5.62;85.03;97298.19;5050626;28;20025;-76
2022/02/02 09:06:01;;;;;;;36.90;20.58;;;;;;;5.65;85.07;97314.72;5048148;28;20044;-74
2022/02/02 09:08:29;;;;;;;33.90;19.88;;;;;;;5.75;84.74;97305.72;5051656;28;20025;-75
2022/02/02 09:24:23;;;;;;;30.98;18.83;;;;;;;10.19;62.49;97311.06;5048245;28;20128;-75
2022/02/02 09:35:09;;;;;;;22.98;14.95;;;;;;;13.97;50.32;97317.09;5044153;28;20525;-75
2022/02/02 09:37:35;;;;;;;24.20;14.52;;;;;;;14.64;49.44;97314.19;5049800;28;20136;-74
2022/02/02 09:40:12;;;;;;;20.63;14.40;;;;;;;13.90;49.64;97311.31;5050965;28;20104;-75
2022/02/02 09:42:38;;;;;;;22.38;16.38;;;;;;;12.29;52.48;97303.97;5051279;28;20067;-74
2022/02/02 09:45:09;;;;;;;24.90;15.52;;;;;;;11.19;56.51;97312.38;5043961;28;20053;-74
2022/02/02 09:47:44;;;;;;;25.00;15.65;;;;;;;10.45;59.34;97308.56;5044304;28;20044;-75
2022/02/02 09:50:22;;;;;;;23.60;16.25;;;;;;;9.55;62.48;97303.97;5049767;28;20033;-75
2022/02/02 09:52:55;;;;;;;28.40;18.27;;;;;;;8.78;65.87;97313.91;5048726;28;20033;-75
2022/02/02 09:55:47;;;;;;;29.35;18.60;;;;;;;8.43;67.86;97326.22;5041283;28;20030;-76
2022/02/02 09:58:24;;;;;;;26.88;17.20;;;;;;;7.80;69.51;97317.59;5040738;28;20147;-74
2022/02/02 10:06:21;;;;;;;22.77;15.15;;;;;;;10.31;60.74;97326.91;5051207;28;20079;-74
2022/02/02 10:09:13;;;;;;;27.02;17.55;;;;;;;10.11;61.41;97321.91;5050439;28;20021;-74
2022/02/02 10:14:16;;;;;;;33.30;18.70;;;;;;;9.80;63.46;97316.31;5050992;28;20045;-75
2022/02/02 10:16:44;;;;;;;29.83;18.35;;;;;;;10.09;62.51;97324.13;5050886;28;20493;-75
2022/02/02 10:19:18;;;;;;;34.95;18.42;;;;;;;9.97;63.79;97329.31;5041278;28;20474;-75
2022/02/02 10:21:44;;;;;;;33.55;19.25;;;;;;;10.27;62.16;97319.66;5052363;28;20030;-76
2022/02/02 10:24:10;;;;;;;39.03;20.27;;;;;;;9.56;63.42;97316.50;5039820;28;20060;-77
2022/02/02 10:26:50;;;;;;;37.85;22.30;;;;;;;9.24;66.59;97329.47;5044239;28;20028;-75
2022/02/02 10:29:17;;;;;;;37.35;19.77;;;;;;;9.18;66.62;97341.59;5040775;28;20068;-75
2022/02/02 10:31:47;;;;;;;28.95;18.83;;;;;;;8.82;67.30;97344.13;5038596;28;20032;-77
2022/02/02 10:34:13;;;;;;;29.35;16.25;;;;;;;8.31;69.61;97336.78;5050768;28;20025;-76
2022/02/02 10:36:39;;;;;;;30.52;15.98;;;;;;;8.49;69.75;97325.03;5052425;28;20083;-76
2022/02/02 10:39:11;;;;;;;28.10;15.98;;;;;;;8.47;70.02;97304.66;5031252;28;20112;-76
2022/02/02 10:41:50;;;;;;;25.67;15.10;;;;;;;7.04;74.06;97268.78;5033972;28;20533;-76
2022/02/02 10:44:21;;;;;;;20.60;12.68;;;;;;;7.47;73.74;97283.22;5034534;28;20033;-76
2022/02/02 10:47:11;;;;;;;24.88;14.82;;;;;;;8.16;69.92;97282.50;5050516;28;20474;-77
2022/02/02 10:52:34;;;;;;;25.92;14.48;;;;;;;9.47;66.67;97296.50;5050027;28;20029;-74
2022/02/02 11:08:53;;;;;;;31.92;14.82;;;;;;;11.42;56.46;97293.97;5051128;28;20055;-79
2022/02/02 11:11:18;;;;;;;27.20;15.05;;;;;;;12.46;54.85;97290.28;5054051;28;20469;-75
2022/02/02 11:13:50;;;;;;;25.83;12.48;;;;;;;11.53;56.30;97275.28;5043268;28;20072;-73
2022/02/02 11:16:22;;;;;;;24.85;12.27;;;;;;;10.72;58.68;97292.00;5051145;28;20083;-80
2022/02/02 11:18:48;;;;;;;27.17;12.68;;;;;;;10.47;59.99;97292.63;5044698;28;20057;-76
2022/02/02 11:21:15;;;;;;;24.08;14.52;;;;;;;10.54;58.30;97265.66;5053580;28;20029;-76
2022/02/02 11:23:50;;;;;;;22.90;13.40;;;;;;;12.42;55.05;97286.56;5046292;28;20510;-75
2022/02/02 11:26:41;;;;;;;23.17;13.13;;;;;;;12.81;53.49;97289.09;5040996;28;20117;-74
2022/02/02 11:29:07;;;;;;;25.73;12.73;;;;;;;12.40;53.79;97274.31;5036623;28;20029;-75
2022/02/02 11:31:33;;;;;;;28.38;14.75;;;;;;;12.02;55.61;97287.84;5042556;28;20039;-75
2022/02/02 11:34:00;;;;;;;33.70;19.35;;;;;;;11.52;58.03;97274.50;5044326;28;20051;-75
2022/02/02 11:36:38;;;;;;;45.20;23.40;;;;;;;11.47;58.87;97277.38;5044748;28;20086;-74
2022/02/02 11:39:07;;;;;;;37.67;21.55;;;;;;;11.56;58.09;97280.16;5032141;28;20029;-76
2022/02/02 11:46:51;;;;;;;33.80;21.23;;;;;;;11.74;57.37;97288.13;5042790;28;20127;-76
2022/02/02 11:49:44;;;;;;;39.65;20.02;;;;;;;11.26;58.62;97285.34;5034191;28;20033;-75
2022/02/02 11:52:35;;;;;;;36.53;23.38;;;;;;;10.04;62.67;97275.06;5032347;28;20433;-75
2022/02/02 11:55:03;;;;;;;39.63;22.52;;;;;;;9.00;66.94;97264.16;5033094;28;20033;-75
2022/02/02 11:57:35;;;;;;;35.13;21.90;;;;;;;8.17;69.96;97265.06;5038030;28;20138;-75
2022/02/02 12:00:37;;;;;;;43.92;24.35;;;;;;;8.20;71.51;97269.91;5042505;28;20022;-74
2022/02/02 12:08:39;;;;;;;39.22;23.00;;;;;;;7.91;74.19;97264.63;5032855;28;20022;-76
2022/02/02 12:44:37;;;;;;;34.95;16.85;;;;;;;7.79;72.40;97272.44;5051708;28;20029;-75
2022/02/02 12:47:11;;;;;;;38.55;18.17;;;;;;;8.12;71.38;97286.09;5056548;28;20606;-76
2022/02/02 12:49:47;;;;;;;36.50;20.92;;;;;;;8.33;70.93;97274.59;5051498;28;20032;-76
2022/02/02 12:57:55;;;;;;;29.05;17.38;;;;;;;8.51;70.10;97256.63;5050604;28;20055;-76
2022/02/02 13:00:35;;;;;;;35.90;16.80;;;;;;;8.33;69.93;97250.09;5041107;28;20564;-75
2022/02/02 13:03:02;;;;;;;34.20;17.13;;;;;;;8.47;69.77;97244.69;5041947;28;20035;-75
2022/02/02 13:05:29;;;;;;;31.85;16.23;;;;;;;8.71;68.84;97250.00;5037919;28;20525;-82
2022/02/02 13:07:57;;;;;;;34.40;15.40;;;;;;;8.85;67.53;97256.28;5044371;28;20094;-74
2022/02/02 13:10:28;;;;;;;33.47;16.77;;;;;;;9.07;66.97;97245.47;5040826;28;20026;-74
2022/02/02 13:13:21;;;;;;;32.22;14.60;;;;;;;9.08;66.83;97247.09;5040604;28;20041;-76
2022/02/02 13:15:52;;;;;;;31.65;14.98;;;;;;;9.28;66.45;97249.41;5045358;28;20535;-74
2022/02/02 13:21:24;;;;;;;22.55;12.90;;;;;;;9.26;65.44;97248.91;5048192;28;20065;-77
2022/02/02 13:24:12;;;;;;;21.73;11.95;;;;;;;9.07;64.76;97232.66;5049927;28;20028;-75
2022/02/02 13:32:11;;;;;;;17.00;10.13;;;;;;;9.40;62.69;97246.97;5048469;28;20091;-74
2022/02/02 13:37:44;;;;;;;21.98;11.95;;;;;;;9.76;63.04;97254.41;5042841;28;20087;-75
2022/02/02 13:46:37;;;;;;;27.90;10.70;;;;;;;9.86;61.52;97246.78;5048946;28;20017;-75
2022/02/02 13:54:44;;;;;;;19.45;9.48;;;;;;;9.87;60.96;97251.13;5043400;28;20040;-74
2022/02/02 13:57:45;;;;;;;21.38;9.45;;;;;;;9.96;60.45;97245.75;5048268;28;20035;-74
2022/02/02 14:33:10;;;;;;;6.95;1.50;;;;;;;10.26;48.11;97296.97;5056794;28;20043;-76
2022/02/02 14:35:36;;;;;;;26.20;11.20;;;;;;;10.25;48.23;97303.56;5046846;28;20033;-77
2022/02/02 14:38:03;;;;;;;11.40;4.38;;;;;;;10.22;46.73;97312.38;5057910;28;20020;-76
2022/02/02 14:40:40;;;;;;;11.98;4.63;;;;;;;10.25;46.39;97317.22;5053937;28;20025;-79
2022/02/02 14:43:08;;;;;;;17.60;6.20;;;;;;;10.15;46.30;97295.59;5055635;28;20032;-76
2022/02/02 14:45:37;;;;;;;4.45;1.50;;;;;;;10.19;46.12;97323.91;5073723;28;20047;-76
2022/02/02 14:48:14;;;;;;;2.30;0.90;;;;;;;10.19;46.03;97330.19;5049105;28;20033;-81
2022/02/02 14:53:30;;;;;;;1.65;0.80;;;;;;;10.07;45.27;97331.81;5058062;28;20109;-79
2022/02/02 15:28:03;;;;;;;3.78;0.98;;;;;;;9.29;46.70;97370.28;5044021;28;20021;-74
2022/02/02 15:30:35;;;;;;;2.00;0.95;;;;;;;9.27;46.80;97386.16;5053651;28;20033;-77
2022/02/02 15:33:10;;;;;;;4.45;1.10;;;;;;;9.20;46.73;97383.00;5067017;28;20035;-78
2022/02/02 15:35:38;;;;;;;;;;;;;;;9.14;47.36;97396.75;5057377;28;20025;-75
2022/02/02 15:38:07;;;;;;;3.72;1.30;;;;;;;9.07;47.22;97409.97;5066664;28;19923;-76
2022/02/02 15:40:38;;;;;;;3.97;1.33;;;;;;;8.90;48.40;97406.16;5052934;28;20028;-77
2022/02/02 15:43:26;;;;;;;4.13;1.08;;;;;;;8.91;47.87;97419.50;5064863;28;20028;-75
2022/02/02 16:04:31;;;;;;;3.38;1.15;;;;;;;8.60;48.02;97461.97;5046352;28;20025;-75
2022/02/02 16:07:01;;;;;;;10.43;1.25;;;;;;;8.50;48.42;97468.38;5039601;28;20042;-73
2022/02/02 16:09:33;;;;;;;4.20;1.50;;;;;;;8.47;48.81;97470.88;5046873;28;20790;-74
2022/02/02 16:12:14;;;;;;;3.85;0.70;;;;;;;8.37;48.83;97463.66;5037318;28;20034;-75
2022/02/02 16:14:44;;;;;;;2.50;0.85;;;;;;;8.21;49.23;97464.94;5038912;28;20033;-75
2022/02/02 16:25:29;;;;;;;3.85;1.10;;;;;;;7.90;50.99;97509.97;5032617;28;20039;-77
2022/02/02 16:36:30;;;;;;;8.20;1.15;;;;;;;7.38;53.01;97533.34;5040920;28;20095;-75
2022/02/02 16:39:05;;;;;;;2.70;1.10;;;;;;;7.43;52.49;97518.88;5036438;28;20025;-75
2022/02/02 16:44:15;;;;;;;2.47;1.38;;;;;;;7.19;53.18;97535.13;5043737;28;19928;-75
2022/02/02 16:46:40;;;;;;;3.88;1.25;;;;;;;7.14;53.64;97535.16;5038304;28;20033;-75
2022/02/02 16:49:05;;;;;;;8.98;1.10;;;;;;;7.13;53.85;97546.31;5031943;28;20421;-75
2022/02/02 16:51:31;;;;;;;4.68;1.38;;;;;;;6.96;54.35;97552.13;5032296;28;20034;-75
2022/02/02 16:53:59;;;;;;;3.10;1.30;;;;;;;6.82;54.71;97545.72;5036385;28;20073;-74
2022/02/02 17:32:32;;;;;;;8.45;2.55;;;;;;;6.00;58.80;97582.47;5044258;28;20482;-75
2022/02/02 17:34:37;;;;;;;4.18;2.05;;;;;;;5.87;59.53;97586.56;5038888;28;20029;-75
2022/02/02 17:39:42;;;;;;;11.93;6.13;;;;;;;5.84;59.55;97597.13;5047844;28;20029;-74
2022/02/02 17:42:36;;;;;;;15.25;8.43;;;;;;;5.92;59.66;97599.28;5040929;28;20033;-74
2022/02/02 17:45:28;;;;;;;12.20;5.35;;;;;;;5.91;60.33;97600.41;5048877;28;20056;-74
2022/02/02 18:12:34;;;;;;;9.02;2.00;;;;;;;6.65;55.68;97588.75;5047377;28;20040;-73
2022/02/02 18:20:03;;;;;;;8.77;3.22;;;;;;;6.65;55.76;97588.75;5036413;28;20040;-75
2022/02/02 18:22:36;;;;;;;8.05;3.58;;;;;;;6.73;55.34;97604.47;5046046;28;20442;-76
2022/02/02 18:25:21;;;;;;;6.15;1.70;;;;;;;6.73;54.82;97593.63;5053029;28;20067;-75
2022/02/02 18:27:59;;;;;;;3.83;1.10;;;;;;;6.79;54.81;97608.81;5053211;28;20095;-74
2022/02/02 18:33:55;;;;;;;3.38;1.35;;;;;;;6.96;53.77;97604.63;5048632;28;20040;-73
2022/02/02 18:44:10;;;;;;;2.78;1.50;;;;;;;6.78;55.46;97626.19;5056209;28;20029;-76
2022/02/02 18:52:36;;;;;;;6.45;1.10;;;;;;;6.39;55.55;97662.19;5055405;28;20108;-75
2022/02/02 18:57:32;;;;;;;2.50;1.15;;;;;;;6.32;55.50;97672.53;5055633;28;20132;-76
2022/02/02 19:05:50;;;;;;;21.45;9.07;;;;;;;6.17;55.97;97686.13;5058927;28;20067;-77
2022/02/02 20:03:23;;;;;;;7.80;3.03;;;;;;;5.31;62.68;97770.13;5040431;28;20751;-75
2022/02/02 20:08:47;;;;;;;9.05;2.72;;;;;;;5.28;62.64;97769.84;5054793;28;20489;-75
2022/02/02 20:11:19;;;;;;;6.70;2.95;;;;;;;5.25;62.59;97787.47;5057730;28;20161;-74
2022/02/02 20:13:44;;;;;;;9.00;2.83;;;;;;;5.18;62.99;97781.47;5043239;28;20398;-76
2022/02/02 20:16:10;;;;;;;6.47;3.05;;;;;;;5.15;62.99;97776.59;5064116;28;20025;-76
2022/02/02 20:18:40;;;;;;;9.68;2.55;;;;;;;5.13;63.31;97767.91;5046675;28;20195;-75
2022/02/02 20:21:08;;;;;;;6.32;2.50;;;;;;;5.00;63.70;97783.81;5076569;28;20032;-75
2022/02/02 20:23:39;;;;;;;9.05;2.72;;;;;;;4.92;63.95;97793.25;5056977;28;20163;-75
2022/02/02 20:26:07;;;;;;;5.63;2.80;;;;;;;4.87;64.19;97790.53;5048231;28;20079;-74
2022/02/02 20:28:32;;;;;;;6.35;2.30;;;;;;;4.74;64.35;97796.41;5064163;28;20044;-73
2022/02/02 20:30:57;;;;;;;8.25;2.60;;;;;;;4.72;64.58;97801.28;5061386;28;20016;-74
2022/02/02 20:33:23;;;;;;;5.10;2.45;;;;;;;4.74;64.56;97801.84;5058728;28;20375;-77
2022/02/02 20:35:48;;;;;;;4.70;2.30;;;;;;;4.69;64.70;97801.81;5060816;28;20071;-73
2022/02/02 20:38:14;;;;;;;5.60;2.05;;;;;;;4.63;65.71;97805.56;5040364;28;21183;-73
2022/02/02 20:40:39;;;;;;;8.75;2.53;;;;;;;4.70;65.15;97808.84;5071033;28;20094;-73
2022/02/02 20:43:11;;;;;;;4.72;1.52;;;;;;;4.83;64.02;97811.09;5060701;28;20027;-76
2022/02/02 21:05:37;;;;;;;4.72;2.33;;;;;;;4.87;63.03;97855.56;5060320;28;20082;-75
2022/02/02 21:10:18;;;;;;;5.47;1.92;;;;;;;4.95;62.13;97871.31;5040629;28;20101;-76
2022/02/02 21:15:31;;;;;;;7.60;2.60;;;;;;;5.00;62.25;97884.94;5061889;28;20458;-76
2022/02/02 21:18:04;;;;;;;5.03;1.95;;;;;;;5.02;63.63;97880.06;5045092;28;20025;-76
2022/02/02 21:20:58;;;;;;;7.50;2.10;;;;;;;4.98;62.15;97881.63;5060148;28;20036;-76
2022/02/02 21:26:12;;;;;;;6.28;2.35;;;;;;;5.00;63.03;97903.06;5048124;28;21036;-77
2022/02/02 21:28:36;;;;;;;5.72;2.13;;;;;;;4.90;62.78;97901.09;5046670;28;20471;-76
2022/02/02 21:31:02;;;;;;;6.85;1.90;;;;;;;4.81;62.94;97895.38;5049930;28;20029;-75
2022/02/02 21:33:28;;;;;;;4.22;1.90;;;;;;;4.88;64.96;97894.31;5058363;28;20037;-81
2022/02/02 21:35:56;;;;;;;6.72;2.10;;;;;;;4.84;67.08;97883.19;5065286;28;20028;-74
2022/02/02 21:40:58;;;;;;;11.90;5.68;;;;;;;5.11;64.90;97908.28;5053896;28;20080;-75
2022/02/02 21:43:25;;;;;;;5.10;1.83;;;;;;;5.16;62.48;97908.34;5042923;28;20112;-73
2022/02/02 21:45:52;;;;;;;6.65;2.60;;;;;;;5.12;62.43;97917.25;5046433;28;20032;-75
2022/02/02 21:48:18;;;;;;;5.97;2.70;;;;;;;4.95;62.10;97906.56;5052936;28;20021;-76
2022/02/02 21:50:56;;;;;;;8.30;2.40;;;;;;;4.98;62.05;97906.03;5061268;28;20021;-74
2022/02/02 21:53:22;;;;;;;5.53;1.98;;;;;;;5.04;61.70;97913.16;5041967;28;20079;-75
2022/02/02 21:55:47;;;;;;;8.02;2.60;;;;;;;5.03;61.77;97916.09;5049224;28;20032;-75
2022/02/02 21:58:13;;;;;;;5.35;2.20;;;;;;;4.86;62.31;97903.53;5057523;28;20033;-77
2022/02/02 22:00:40;;;;;;;7.93;2.80;;;;;;;4.79;62.84;97907.53;5065004;28;20025;-76
2022/02/02 22:03:07;;;;;;;7.32;2.70;;;;;;;4.66;63.10;97907.97;5059634;28;20020;-75
2022/02/02 22:05:39;;;;;;;11.45;2.88;;;;;;;4.62;63.27;97907.66;5055709;28;20059;-75
2022/02/02 22:08:08;;;;;;;4.53;1.95;;;;;;;4.91;61.85;97910.06;5060201;28;20075;-75
2022/02/02 22:10:35;;;;;;;9.13;2.50;;;;;;;4.80;61.90;97898.31;5045203;28;20047;-74
2022/02/02 22:13:01;;;;;;;5.50;1.95;;;;;;;4.61;61.76;97883.53;5045931;28;20043;-77
2022/02/02 22:15:41;;;;;;;4.70;2.05;;;;;;;4.72;62.44;97912.34;5048407;28;20025;-75
2022/02/02 22:18:06;;;;;;;3.63;1.83;;;;;;;4.84;61.38;97916.53;5030904;28;20029;-75
2022/02/02 22:20:32;;;;;;;3.17;1.20;;;;;;;4.83;61.22;97927.59;5047336;28;20037;-75
2022/02/02 22:22:57;;;;;;;2.15;1.00;;;;;;;4.94;60.77;97917.66;5048925;28;20029;-75
2022/02/02 22:25:23;;;;;;;3.28;1.50;;;;;;;4.90;60.89;97932.81;5047716;28;20432;-75
2022/02/02 22:27:49;;;;;;;3.22;1.38;;;;;;;4.85;61.21;97922.75;5048960;28;20039;-74
2022/02/02 22:30:15;;;;;;;5.63;1.48;;;;;;;4.73;62.22;97941.09;5049242;28;20470;-75
2022/02/02 22:32:41;;;;;;;3.58;1.88;;;;;;;4.62;62.90;97923.09;5044485;28;20083;-75